sensor_id;sensor_type;location;lat;lon;timestamp;P1;durP1;ratioP1;P2;durP2;ratioP2
19006;SDS011;9636;47.382;8.480;2023-02-07T00:00:40;3.20;;;2.90;;
19006;SDS011;9636;47.382;8.480;2023-02-07T00:03:08;3.30;;;2.73;;
19006;SDS011;9636;47.382;8.480;2023-02-07T00:05:35;2.83;;;2.63;;
19006;SDS011;9636;47.382;8.480;2023-02-07T00:08:02;3.33;;;2.87;;
19006;SDS011;9636;47.382;8.480;2023-02-07T00:10:29;3.30;;;2.60;;
19006;SDS011;9636;47.382;8.480;2023-02-07T00:12:58;3.30;;;3.00;;
19006;SDS011;9636;47.382;8.480;2023-02-07T00:15:25;3.40;;;3.10;;
19006;SDS011;9636;47.382;8.480;2023-02-07T00:17:52;3.20;;;2.90;;
19006;SDS011;9636;47.382;8.480;2023-02-07T00:20:19;3.13;;;2.83;;
19006;SDS011;9636;47.382;8.480;2023-02-07T00:22:49;3.77;;;3.00;;
19006;SDS011;9636;47.382;8.480;2023-02-07T00:25:16;2.90;;;2.60;;
19006;SDS011;9636;47.382;8.480;2023-02-07T00:27:44;2.83;;;2.63;;
19006;SDS011;9636;47.382;8.480;2023-02-07T00:30:12;3.07;;;2.60;;
19006;SDS011;9636;47.382;8.480;2023-02-07T00:32:40;3.53;;;3.10;;
19006;SDS011;9636;47.382;8.480;2023-02-07T00:35:07;4.17;;;2.87;;
19006;SDS011;9636;47.382;8.480;2023-02-07T00:37:34;3.37;;;2.83;;
19006;SDS011;9636;47.382;8.480;2023-02-07T00:40:01;3.60;;;2.93;;
19006;SDS011;9636;47.382;8.480;2023-02-07T00:42:28;3.23;;;2.93;;
19006;SDS011;9636;47.382;8.480;2023-02-07T00:44:56;2.97;;;2.70;;
19006;SDS011;9636;47.382;8.480;2023-02-07T00:47:24;3.13;;;2.70;;
19006;SDS011;9636;47.382;8.480;2023-02-07T00:49:51;3.17;;;2.87;;
19006;SDS011;9636;47.382;8.480;2023-02-07T00:52:18;3.10;;;2.80;;
19006;SDS011;9636;47.382;8.480;2023-02-07T00:54:45;2.87;;;2.60;;
19006;SDS011;9636;47.382;8.480;2023-02-07T00:57:13;3.03;;;2.80;;
19006;SDS011;9636;47.382;8.480;2023-02-07T00:59:40;2.80;;;2.60;;
19006;SDS011;9636;47.382;8.480;2023-02-07T01:02:07;2.90;;;2.70;;
19006;SDS011;9636;47.382;8.480;2023-02-07T01:04:35;3.47;;;3.00;;
19006;SDS011;9636;47.382;8.480;2023-02-07T01:07:02;3.00;;;2.70;;
19006;SDS011;9636;47.382;8.480;2023-02-07T01:09:30;3.47;;;2.77;;
19006;SDS011;9636;47.382;8.480;2023-02-07T01:11:57;3.40;;;3.10;;
19006;SDS011;9636;47.382;8.480;2023-02-07T01:14:24;3.27;;;2.97;;
19006;SDS011;9636;47.382;8.480;2023-02-07T01:16:51;3.10;;;2.80;;
19006;SDS011;9636;47.382;8.480;2023-02-07T01:19:19;3.30;;;2.90;;
19006;SDS011;9636;47.382;8.480;2023-02-07T01:21:47;3.47;;;2.77;;
19006;SDS011;9636;47.382;8.480;2023-02-07T01:24:15;3.33;;;2.90;;
19006;SDS011;9636;47.382;8.480;2023-02-07T01:26:42;3.37;;;3.07;;
19006;SDS011;9636;47.382;8.480;2023-02-07T01:29:09;3.37;;;2.77;;
19006;SDS011;9636;47.382;8.480;2023-02-07T01:31:40;4.07;;;3.07;;
19006;SDS011;9636;47.382;8.480;2023-02-07T01:34:09;3.40;;;3.10;;
19006;SDS011;9636;47.382;8.480;2023-02-07T01:36:37;3.40;;;2.93;;
19006;SDS011;9636;47.382;8.480;2023-02-07T01:39:05;3.30;;;3.00;;
19006;SDS011;9636;47.382;8.480;2023-02-07T01:41:32;3.23;;;2.93;;
19006;SDS011;9636;47.382;8.480;2023-02-07T01:44:00;3.70;;;3.00;;
19006;SDS011;9636;47.382;8.480;2023-02-07T01:46:28;3.27;;;2.73;;
19006;SDS011;9636;47.382;8.480;2023-02-07T01:48:57;3.43;;;3.00;;
19006;SDS011;9636;47.382;8.480;2023-02-07T01:51:25;3.67;;;3.10;;
19006;SDS011;9636;47.382;8.480;2023-02-07T01:53:52;3.47;;;2.90;;
19006;SDS011;9636;47.382;8.480;2023-02-07T01:56:22;3.57;;;3.07;;
19006;SDS011;9636;47.382;8.480;2023-02-07T01:58:50;4.70;;;3.30;;
19006;SDS011;9636;47.382;8.480;2023-02-07T02:01:19;3.77;;;3.10;;
19006;SDS011;9636;47.382;8.480;2023-02-07T02:03:48;3.83;;;2.83;;
19006;SDS011;9636;47.382;8.480;2023-02-07T02:06:16;4.47;;;3.27;;
19006;SDS011;9636;47.382;8.480;2023-02-07T02:08:44;3.97;;;2.90;;
19006;SDS011;9636;47.382;8.480;2023-02-07T02:11:17;3.60;;;3.13;;
19006;SDS011;9636;47.382;8.480;2023-02-07T02:13:52;5.07;;;3.20;;
19006;SDS011;9636;47.382;8.480;2023-02-07T02:16:23;3.50;;;3.20;;
19006;SDS011;9636;47.382;8.480;2023-02-07T02:19:04;4.23;;;3.30;;
19006;SDS011;9636;47.382;8.480;2023-02-07T02:27:09;3.50;;;3.20;;
19006;SDS011;9636;47.382;8.480;2023-02-07T02:32:37;3.90;;;3.50;;
19006;SDS011;9636;47.382;8.480;2023-02-07T02:35:07;4.53;;;3.23;;
19006;SDS011;9636;47.382;8.480;2023-02-07T02:37:41;4.10;;;3.67;;
19006;SDS011;9636;47.382;8.480;2023-02-07T02:40:13;3.57;;;3.27;;
19006;SDS011;9636;47.382;8.480;2023-02-07T02:42:43;4.10;;;3.63;;
19006;SDS011;9636;47.382;8.480;2023-02-07T02:45:11;3.50;;;3.20;;
19006;SDS011;9636;47.382;8.480;2023-02-07T02:47:41;3.83;;;3.43;;
19006;SDS011;9636;47.382;8.480;2023-02-07T02:50:10;4.07;;;3.23;;
19006;SDS011;9636;47.382;8.480;2023-02-07T02:52:37;4.37;;;3.60;;
19006;SDS011;9636;47.382;8.480;2023-02-07T02:55:05;3.40;;;3.10;;
19006;SDS011;9636;47.382;8.480;2023-02-07T02:57:39;3.93;;;3.20;;
19006;SDS011;9636;47.382;8.480;2023-02-07T03:00:16;3.13;;;2.83;;
19006;SDS011;9636;47.382;8.480;2023-02-07T03:02:50;4.60;;;3.30;;
19006;SDS011;9636;47.382;8.480;2023-02-07T03:05:31;4.67;;;3.40;;
19006;SDS011;9636;47.382;8.480;2023-02-07T03:08:03;4.10;;;3.40;;
19006;SDS011;9636;47.382;8.480;2023-02-07T03:10:37;4.57;;;3.53;;
19006;SDS011;9636;47.382;8.480;2023-02-07T03:13:08;5.77;;;3.63;;
19006;SDS011;9636;47.382;8.480;2023-02-07T03:15:42;4.10;;;3.50;;
19006;SDS011;9636;47.382;8.480;2023-02-07T03:18:14;3.83;;;3.40;;
19006;SDS011;9636;47.382;8.480;2023-02-07T03:20:42;3.73;;;3.43;;
19006;SDS011;9636;47.382;8.480;2023-02-07T03:23:10;4.60;;;3.60;;
19006;SDS011;9636;47.382;8.480;2023-02-07T03:25:39;4.37;;;3.60;;
19006;SDS011;9636;47.382;8.480;2023-02-07T03:28:07;3.87;;;3.47;;
19006;SDS011;9636;47.382;8.480;2023-02-07T03:30:35;4.20;;;3.60;;
19006;SDS011;9636;47.382;8.480;2023-02-07T03:33:06;4.17;;;3.50;;
19006;SDS011;9636;47.382;8.480;2023-02-07T03:35:38;3.50;;;3.20;;
19006;SDS011;9636;47.382;8.480;2023-02-07T03:38:07;4.47;;;3.50;;
19006;SDS011;9636;47.382;8.480;2023-02-07T03:40:37;4.70;;;3.97;;
19006;SDS011;9636;47.382;8.480;2023-02-07T03:43:05;4.13;;;3.40;;
19006;SDS011;9636;47.382;8.480;2023-02-07T03:45:33;4.37;;;3.60;;
19006;SDS011;9636;47.382;8.480;2023-02-07T03:48:01;4.07;;;3.33;;
19006;SDS011;9636;47.382;8.480;2023-02-07T03:50:28;4.53;;;3.60;;
19006;SDS011;9636;47.382;8.480;2023-02-07T03:52:57;4.60;;;4.10;;
19006;SDS011;9636;47.382;8.480;2023-02-07T03:55:24;4.10;;;3.47;;
19006;SDS011;9636;47.382;8.480;2023-02-07T03:57:51;4.10;;;3.70;;
19006;SDS011;9636;47.382;8.480;2023-02-07T04:00:19;4.30;;;3.87;;
19006;SDS011;9636;47.382;8.480;2023-02-07T04:02:46;4.90;;;3.80;;
19006;SDS011;9636;47.382;8.480;2023-02-07T04:05:13;4.40;;;3.93;;
19006;SDS011;9636;47.382;8.480;2023-02-07T04:07:40;3.93;;;3.50;;
19006;SDS011;9636;47.382;8.480;2023-02-07T04:10:09;4.57;;;3.77;;
19006;SDS011;9636;47.382;8.480;2023-02-07T04:12:37;4.70;;;3.90;;
19006;SDS011;9636;47.382;8.480;2023-02-07T04:15:04;5.00;;;3.80;;
19006;SDS011;9636;47.382;8.480;2023-02-07T04:17:32;4.67;;;3.90;;
19006;SDS011;9636;47.382;8.480;2023-02-07T04:19:59;4.33;;;3.60;;
19006;SDS011;9636;47.382;8.480;2023-02-07T04:22:26;5.80;;;4.20;;
19006;SDS011;9636;47.382;8.480;2023-02-07T04:24:53;4.67;;;3.93;;
19006;SDS011;9636;47.382;8.480;2023-02-07T04:27:22;4.60;;;4.00;;
19006;SDS011;9636;47.382;8.480;2023-02-07T04:29:49;4.43;;;3.87;;
19006;SDS011;9636;47.382;8.480;2023-02-07T04:32:16;4.77;;;3.80;;
19006;SDS011;9636;47.382;8.480;2023-02-07T04:34:43;4.00;;;3.60;;
19006;SDS011;9636;47.382;8.480;2023-02-07T04:37:10;4.63;;;3.80;;
19006;SDS011;9636;47.382;8.480;2023-02-07T04:39:38;3.83;;;3.47;;
19006;SDS011;9636;47.382;8.480;2023-02-07T04:42:05;5.00;;;3.97;;
19006;SDS011;9636;47.382;8.480;2023-02-07T04:44:34;5.27;;;3.70;;
19006;SDS011;9636;47.382;8.480;2023-02-07T04:47:01;5.30;;;3.90;;
19006;SDS011;9636;47.382;8.480;2023-02-07T04:49:28;5.77;;;4.30;;
19006;SDS011;9636;47.382;8.480;2023-02-07T04:51:55;5.47;;;4.20;;
19006;SDS011;9636;47.382;8.480;2023-02-07T04:54:22;5.17;;;3.77;;
19006;SDS011;9636;47.382;8.480;2023-02-07T04:56:50;4.13;;;3.70;;
19006;SDS011;9636;47.382;8.480;2023-02-07T04:59:17;4.33;;;3.93;;
19006;SDS011;9636;47.382;8.480;2023-02-07T05:01:46;4.30;;;3.90;;
19006;SDS011;9636;47.382;8.480;2023-02-07T05:04:13;4.33;;;3.67;;
19006;SDS011;9636;47.382;8.480;2023-02-07T05:06:40;4.30;;;3.90;;
19006;SDS011;9636;47.382;8.480;2023-02-07T05:09:07;4.20;;;3.80;;
19006;SDS011;9636;47.382;8.480;2023-02-07T05:11:34;4.23;;;3.83;;
19006;SDS011;9636;47.382;8.480;2023-02-07T05:14:01;4.30;;;3.70;;
19006;SDS011;9636;47.382;8.480;2023-02-07T05:16:28;3.87;;;3.47;;
19006;SDS011;9636;47.382;8.480;2023-02-07T05:18:57;6.03;;;3.73;;
19006;SDS011;9636;47.382;8.480;2023-02-07T05:21:24;3.67;;;3.27;;
19006;SDS011;9636;47.382;8.480;2023-02-07T05:23:51;4.40;;;3.70;;
19006;SDS011;9636;47.382;8.480;2023-02-07T05:26:18;3.60;;;3.30;;
19006;SDS011;9636;47.382;8.480;2023-02-07T05:28:45;4.27;;;3.63;;
19006;SDS011;9636;47.382;8.480;2023-02-07T05:31:13;4.50;;;3.50;;
19006;SDS011;9636;47.382;8.480;2023-02-07T05:33:40;3.43;;;3.10;;
19006;SDS011;9636;47.382;8.480;2023-02-07T05:36:08;4.17;;;3.50;;
19006;SDS011;9636;47.382;8.480;2023-02-07T05:38:35;3.70;;;3.17;;
19006;SDS011;9636;47.382;8.480;2023-02-07T05:41:03;3.70;;;3.30;;
19006;SDS011;9636;47.382;8.480;2023-02-07T05:43:30;3.70;;;3.27;;
19006;SDS011;9636;47.382;8.480;2023-02-07T05:45:57;3.83;;;3.40;;
19006;SDS011;9636;47.382;8.480;2023-02-07T05:48:24;4.00;;;3.50;;
19006;SDS011;9636;47.382;8.480;2023-02-07T05:50:51;3.73;;;3.40;;
19006;SDS011;9636;47.382;8.480;2023-02-07T05:53:20;4.00;;;3.57;;
19006;SDS011;9636;47.382;8.480;2023-02-07T05:55:49;5.03;;;3.20;;
19006;SDS011;9636;47.382;8.480;2023-02-07T05:58:16;4.10;;;3.60;;
19006;SDS011;9636;47.382;8.480;2023-02-07T06:00:44;3.50;;;3.20;;
19006;SDS011;9636;47.382;8.480;2023-02-07T06:03:12;3.50;;;3.20;;
19006;SDS011;9636;47.382;8.480;2023-02-07T06:05:40;3.00;;;2.70;;
19006;SDS011;9636;47.382;8.480;2023-02-07T06:08:07;3.30;;;3.00;;
19006;SDS011;9636;47.382;8.480;2023-02-07T06:10:36;3.90;;;3.20;;
19006;SDS011;9636;47.382;8.480;2023-02-07T06:13:03;3.30;;;3.00;;
19006;SDS011;9636;47.382;8.480;2023-02-07T06:15:30;3.30;;;3.00;;
19006;SDS011;9636;47.382;8.480;2023-02-07T06:17:57;3.20;;;2.90;;
19006;SDS011;9636;47.382;8.480;2023-02-07T06:20:24;3.20;;;2.90;;
19006;SDS011;9636;47.382;8.480;2023-02-07T06:22:51;3.17;;;2.80;;
19006;SDS011;9636;47.382;8.480;2023-02-07T06:25:19;3.80;;;3.20;;
19006;SDS011;9636;47.382;8.480;2023-02-07T06:27:47;2.97;;;2.77;;
19006;SDS011;9636;47.382;8.480;2023-02-07T06:30:14;3.47;;;3.10;;
19006;SDS011;9636;47.382;8.480;2023-02-07T06:32:41;3.57;;;3.03;;
19006;SDS011;9636;47.382;8.480;2023-02-07T06:35:09;3.77;;;3.17;;
19006;SDS011;9636;47.382;8.480;2023-02-07T06:37:36;3.40;;;2.80;;
19006;SDS011;9636;47.382;8.480;2023-02-07T06:40:03;3.20;;;2.90;;
19006;SDS011;9636;47.382;8.480;2023-02-07T06:42:33;4.53;;;3.00;;
19006;SDS011;9636;47.382;8.480;2023-02-07T06:45:01;3.33;;;3.00;;
19006;SDS011;9636;47.382;8.480;2023-02-07T06:47:29;3.27;;;2.97;;
19006;SDS011;9636;47.382;8.480;2023-02-07T06:49:56;3.47;;;3.13;;
19006;SDS011;9636;47.382;8.480;2023-02-07T06:52:23;3.30;;;3.00;;
19006;SDS011;9636;47.382;8.480;2023-02-07T06:54:50;2.90;;;2.60;;
19006;SDS011;9636;47.382;8.480;2023-02-07T06:57:17;3.30;;;2.87;;
19006;SDS011;9636;47.382;8.480;2023-02-07T06:59:45;3.13;;;2.83;;
19006;SDS011;9636;47.382;8.480;2023-02-07T07:02:13;3.00;;;2.70;;
19006;SDS011;9636;47.382;8.480;2023-02-07T07:04:41;3.13;;;2.83;;
19006;SDS011;9636;47.382;8.480;2023-02-07T07:07:08;2.90;;;2.70;;
19006;SDS011;9636;47.382;8.480;2023-02-07T07:09:35;2.70;;;2.40;;
19006;SDS011;9636;47.382;8.480;2023-02-07T07:12:02;2.90;;;2.67;;
19006;SDS011;9636;47.382;8.480;2023-02-07T07:14:30;2.97;;;2.30;;
19006;SDS011;9636;47.382;8.480;2023-02-07T07:16:57;3.07;;;2.77;;
19006;SDS011;9636;47.382;8.480;2023-02-07T07:19:26;2.87;;;2.60;;
19006;SDS011;9636;47.382;8.480;2023-02-07T07:21:53;2.70;;;2.50;;
19006;SDS011;9636;47.382;8.480;2023-02-07T07:24:20;2.40;;;2.20;;
19006;SDS011;9636;47.382;8.480;2023-02-07T07:26:47;2.60;;;2.40;;
19006;SDS011;9636;47.382;8.480;2023-02-07T07:29:14;2.97;;;2.50;;
19006;SDS011;9636;47.382;8.480;2023-02-07T07:31:42;2.40;;;2.20;;
19006;SDS011;9636;47.382;8.480;2023-02-07T07:34:09;2.60;;;2.20;;
19006;SDS011;9636;47.382;8.480;2023-02-07T07:36:38;2.23;;;2.03;;
19006;SDS011;9636;47.382;8.480;2023-02-07T07:39:05;2.47;;;2.27;;
19006;SDS011;9636;47.382;8.480;2023-02-07T07:41:33;2.50;;;2.30;;
19006;SDS011;9636;47.382;8.480;2023-02-07T07:44:00;2.17;;;1.97;;
19006;SDS011;9636;47.382;8.480;2023-02-07T07:46:27;2.93;;;2.23;;
19006;SDS011;9636;47.382;8.480;2023-02-07T07:48:54;3.13;;;2.30;;
19006;SDS011;9636;47.382;8.480;2023-02-07T07:51:21;2.30;;;2.10;;
19006;SDS011;9636;47.382;8.480;2023-02-07T07:53:50;2.10;;;1.90;;
19006;SDS011;9636;47.382;8.480;2023-02-07T07:56:17;2.23;;;2.07;;
19006;SDS011;9636;47.382;8.480;2023-02-07T07:58:44;2.60;;;2.17;;
19006;SDS011;9636;47.382;8.480;2023-02-07T08:01:12;2.37;;;2.17;;
19006;SDS011;9636;47.382;8.480;2023-02-07T08:03:39;2.40;;;2.20;;
19006;SDS011;9636;47.382;8.480;2023-02-07T08:06:07;2.30;;;2.10;;
19006;SDS011;9636;47.382;8.480;2023-02-07T08:08:34;2.33;;;2.00;;
19006;SDS011;9636;47.382;8.480;2023-02-07T08:11:03;2.30;;;2.10;;
19006;SDS011;9636;47.382;8.480;2023-02-07T08:13:30;2.23;;;2.03;;
19006;SDS011;9636;47.382;8.480;2023-02-07T08:15:57;2.40;;;2.20;;
19006;SDS011;9636;47.382;8.480;2023-02-07T08:18:24;2.40;;;2.20;;
19006;SDS011;9636;47.382;8.480;2023-02-07T08:20:52;2.93;;;2.50;;
19006;SDS011;9636;47.382;8.480;2023-02-07T08:23:19;2.40;;;2.20;;
19006;SDS011;9636;47.382;8.480;2023-02-07T08:25:46;3.67;;;2.27;;
19006;SDS011;9636;47.382;8.480;2023-02-07T08:28:15;2.43;;;2.23;;
19006;SDS011;9636;47.382;8.480;2023-02-07T08:30:43;3.37;;;2.33;;
19006;SDS011;9636;47.382;8.480;2023-02-07T08:33:11;2.23;;;2.03;;
19006;SDS011;9636;47.382;8.480;2023-02-07T08:35:38;4.77;;;2.50;;
19006;SDS011;9636;47.382;8.480;2023-02-07T08:38:06;3.17;;;2.67;;
19006;SDS011;9636;47.382;8.480;2023-02-07T08:40:33;3.30;;;2.93;;
19006;SDS011;9636;47.382;8.480;2023-02-07T08:43:00;6.00;;;2.80;;
19006;SDS011;9636;47.382;8.480;2023-02-07T08:45:32;6.43;;;2.60;;
19006;SDS011;9636;47.382;8.480;2023-02-07T08:47:59;3.05;;;2.78;;
19006;SDS011;9636;47.382;8.480;2023-02-07T08:50:26;3.40;;;2.90;;
19006;SDS011;9636;47.382;8.480;2023-02-07T08:52:53;5.15;;;3.17;;
19006;SDS011;9636;47.382;8.480;2023-02-07T08:55:20;7.63;;;3.25;;
19006;SDS011;9636;47.382;8.480;2023-02-07T08:57:47;2.88;;;2.67;;
19006;SDS011;9636;47.382;8.480;2023-02-07T09:00:15;5.88;;;3.22;;
19006;SDS011;9636;47.382;8.480;2023-02-07T09:02:44;3.30;;;2.85;;
19006;SDS011;9636;47.382;8.480;2023-02-07T09:05:11;4.35;;;3.00;;
19006;SDS011;9636;47.382;8.480;2023-02-07T09:07:38;5.38;;;2.80;;
19006;SDS011;9636;47.382;8.480;2023-02-07T09:10:06;4.68;;;2.70;;
19006;SDS011;9636;47.382;8.480;2023-02-07T09:12:34;5.80;;;3.08;;
19006;SDS011;9636;47.382;8.480;2023-02-07T09:15:02;3.42;;;2.70;;
19006;SDS011;9636;47.382;8.480;2023-02-07T09:17:29;3.90;;;2.67;;
19006;SDS011;9636;47.382;8.480;2023-02-07T09:19:58;3.25;;;2.95;;
19006;SDS011;9636;47.382;8.480;2023-02-07T09:22:25;3.25;;;2.35;;
19006;SDS011;9636;47.382;8.480;2023-02-07T09:24:52;3.72;;;2.63;;
19006;SDS011;9636;47.382;8.480;2023-02-07T09:27:20;3.03;;;2.72;;
19006;SDS011;9636;47.382;8.480;2023-02-07T09:29:47;3.70;;;2.75;;
19006;SDS011;9636;47.382;8.480;2023-02-07T09:32:14;2.88;;;2.60;;
19006;SDS011;9636;47.382;8.480;2023-02-07T09:34:41;2.72;;;2.53;;
19006;SDS011;9636;47.382;8.480;2023-02-07T09:37:10;2.90;;;2.60;;
19006;SDS011;9636;47.382;8.480;2023-02-07T09:39:37;3.00;;;2.55;;
19006;SDS011;9636;47.382;8.480;2023-02-07T09:42:09;4.03;;;2.60;;
19006;SDS011;9636;47.382;8.480;2023-02-07T09:44:46;3.67;;;2.92;;
19006;SDS011;9636;47.382;8.480;2023-02-07T09:47:16;6.30;;;2.88;;
19006;SDS011;9636;47.382;8.480;2023-02-07T09:49:46;3.53;;;2.50;;
19006;SDS011;9636;47.382;8.480;2023-02-07T09:52:17;3.97;;;2.40;;
19006;SDS011;9636;47.382;8.480;2023-02-07T09:54:47;3.47;;;2.30;;
19006;SDS011;9636;47.382;8.480;2023-02-07T09:57:15;7.03;;;2.88;;
19006;SDS011;9636;47.382;8.480;2023-02-07T09:59:47;2.95;;;2.65;;
19006;SDS011;9636;47.382;8.480;2023-02-07T10:02:20;2.50;;;2.30;;
19006;SDS011;9636;47.382;8.480;2023-02-07T10:04:49;3.45;;;2.50;;
19006;SDS011;9636;47.382;8.480;2023-02-07T10:07:19;2.95;;;2.45;;
19006;SDS011;9636;47.382;8.480;2023-02-07T10:09:52;3.97;;;2.60;;
19006;SDS011;9636;47.382;8.480;2023-02-07T10:15:29;4.40;;;2.60;;
19006;SDS011;9636;47.382;8.480;2023-02-07T10:18:05;7.70;;;2.38;;
19006;SDS011;9636;47.382;8.480;2023-02-07T10:20:36;5.13;;;2.35;;
19006;SDS011;9636;47.382;8.480;2023-02-07T10:23:11;3.47;;;2.15;;
19006;SDS011;9636;47.382;8.480;2023-02-07T10:25:45;2.90;;;2.58;;
19006;SDS011;9636;47.382;8.480;2023-02-07T10:28:26;2.63;;;2.42;;
19006;SDS011;9636;47.382;8.480;2023-02-07T10:30:56;2.42;;;2.22;;
19006;SDS011;9636;47.382;8.480;2023-02-07T10:33:28;4.32;;;2.55;;
19006;SDS011;9636;47.382;8.480;2023-02-07T10:35:57;3.42;;;2.72;;
19006;SDS011;9636;47.382;8.480;2023-02-07T10:38:34;2.97;;;2.70;;
19006;SDS011;9636;47.382;8.480;2023-02-07T10:41:05;3.35;;;2.58;;
19006;SDS011;9636;47.382;8.480;2023-02-07T10:43:36;3.13;;;2.60;;
19006;SDS011;9636;47.382;8.480;2023-02-07T10:46:04;3.88;;;2.50;;
19006;SDS011;9636;47.382;8.480;2023-02-07T10:48:33;3.33;;;2.13;;
19006;SDS011;9636;47.382;8.480;2023-02-07T10:51:02;4.07;;;2.13;;
19006;SDS011;9636;47.382;8.480;2023-02-07T10:53:43;4.25;;;2.50;;
19006;SDS011;9636;47.382;8.480;2023-02-07T10:56:15;2.38;;;2.17;;
19006;SDS011;9636;47.382;8.480;2023-02-07T10:58:44;3.00;;;2.50;;
19006;SDS011;9636;47.382;8.480;2023-02-07T11:01:18;2.42;;;2.22;;
19006;SDS011;9636;47.382;8.480;2023-02-07T11:03:46;3.15;;;2.38;;
19006;SDS011;9636;47.382;8.480;2023-02-07T11:06:14;3.47;;;1.98;;
19006;SDS011;9636;47.382;8.480;2023-02-07T11:08:43;2.30;;;2.10;;
19006;SDS011;9636;47.382;8.480;2023-02-07T11:11:23;2.45;;;2.13;;
19006;SDS011;9636;47.382;8.480;2023-02-07T11:13:51;2.65;;;2.40;;
19006;SDS011;9636;47.382;8.480;2023-02-07T11:16:20;2.20;;;2.10;;
19006;SDS011;9636;47.382;8.480;2023-02-07T11:18:52;2.30;;;2.10;;
19006;SDS011;9636;47.382;8.480;2023-02-07T11:21:23;6.28;;;2.40;;
19006;SDS011;9636;47.382;8.480;2023-02-07T11:23:52;2.92;;;2.15;;
19006;SDS011;9636;47.382;8.480;2023-02-07T11:26:20;9.68;;;2.90;;
19006;SDS011;9636;47.382;8.480;2023-02-07T11:28:50;5.10;;;4.07;;
19006;SDS011;9636;47.382;8.480;2023-02-07T11:31:18;3.88;;;3.50;;
19006;SDS011;9636;47.382;8.480;2023-02-07T11:33:48;6.35;;;3.42;;
19006;SDS011;9636;47.382;8.480;2023-02-07T11:36:19;5.57;;;3.50;;
19006;SDS011;9636;47.382;8.480;2023-02-07T11:38:48;5.82;;;3.30;;
19006;SDS011;9636;47.382;8.480;2023-02-07T11:41:20;3.38;;;3.08;;
19006;SDS011;9636;47.382;8.480;2023-02-07T11:43:52;4.40;;;3.55;;
19006;SDS011;9636;47.382;8.480;2023-02-07T11:46:19;5.03;;;4.53;;
19006;SDS011;9636;47.382;8.480;2023-02-07T11:48:48;9.07;;;4.68;;
19006;SDS011;9636;47.382;8.480;2023-02-07T11:51:17;7.75;;;4.97;;
19006;SDS011;9636;47.382;8.480;2023-02-07T11:53:45;7.55;;;5.00;;
19006;SDS011;9636;47.382;8.480;2023-02-07T11:56:21;14.45;;;12.95;;
19006;SDS011;9636;47.382;8.480;2023-02-07T11:58:49;15.25;;;13.68;;
19006;SDS011;9636;47.382;8.480;2023-02-07T12:01:17;15.65;;;14.15;;
19006;SDS011;9636;47.382;8.480;2023-02-07T12:03:46;13.98;;;12.57;;
19006;SDS011;9636;47.382;8.480;2023-02-07T12:06:14;10.45;;;9.43;;
19006;SDS011;9636;47.382;8.480;2023-02-07T12:08:42;8.85;;;7.78;;
19006;SDS011;9636;47.382;8.480;2023-02-07T12:11:10;9.18;;;6.07;;
19006;SDS011;9636;47.382;8.480;2023-02-07T12:13:41;5.65;;;5.00;;
19006;SDS011;9636;47.382;8.480;2023-02-07T12:16:11;4.80;;;4.30;;
19006;SDS011;9636;47.382;8.480;2023-02-07T12:18:39;4.30;;;3.90;;
19006;SDS011;9636;47.382;8.480;2023-02-07T12:21:09;6.85;;;4.38;;
19006;SDS011;9636;47.382;8.480;2023-02-07T12:23:40;4.45;;;3.95;;
19006;SDS011;9636;47.382;8.480;2023-02-07T12:26:14;5.00;;;3.45;;
19006;SDS011;9636;47.382;8.480;2023-02-07T12:28:44;3.58;;;3.03;;
19006;SDS011;9636;47.382;8.480;2023-02-07T12:31:15;3.42;;;3.13;;
19006;SDS011;9636;47.382;8.480;2023-02-07T12:33:45;4.88;;;3.03;;
19006;SDS011;9636;47.382;8.480;2023-02-07T12:36:19;3.20;;;2.90;;
19006;SDS011;9636;47.382;8.480;2023-02-07T12:38:47;8.27;;;3.40;;
19006;SDS011;9636;47.382;8.480;2023-02-07T12:41:18;3.20;;;2.90;;
19006;SDS011;9636;47.382;8.480;2023-02-07T12:43:52;3.20;;;2.80;;
19006;SDS011;9636;47.382;8.480;2023-02-07T12:46:26;5.80;;;2.58;;
19006;SDS011;9636;47.382;8.480;2023-02-07T12:49:02;3.08;;;2.60;;
19006;SDS011;9636;47.382;8.480;2023-02-07T12:51:32;3.00;;;2.70;;
19006;SDS011;9636;47.382;8.480;2023-02-07T12:54:05;2.60;;;2.40;;
19006;SDS011;9636;47.382;8.480;2023-02-07T12:56:38;4.05;;;2.60;;
19006;SDS011;9636;47.382;8.480;2023-02-07T12:59:12;4.43;;;2.53;;
19006;SDS011;9636;47.382;8.480;2023-02-07T13:01:43;4.35;;;2.67;;
19006;SDS011;9636;47.382;8.480;2023-02-07T13:04:17;2.60;;;2.40;;
19006;SDS011;9636;47.382;8.480;2023-02-07T13:06:53;2.78;;;2.47;;
19006;SDS011;9636;47.382;8.480;2023-02-07T13:09:25;2.50;;;2.30;;
19006;SDS011;9636;47.382;8.480;2023-02-07T13:11:54;2.33;;;2.13;;
19006;SDS011;9636;47.382;8.480;2023-02-07T13:14:27;4.07;;;2.67;;
19006;SDS011;9636;47.382;8.480;2023-02-07T13:17:01;3.28;;;2.65;;
19006;SDS011;9636;47.382;8.480;2023-02-07T13:19:32;4.90;;;2.63;;
19006;SDS011;9636;47.382;8.480;2023-02-07T13:22:12;2.95;;;2.50;;
19006;SDS011;9636;47.382;8.480;2023-02-07T13:24:43;2.60;;;2.40;;
19006;SDS011;9636;47.382;8.480;2023-02-07T13:27:13;2.78;;;2.53;;
19006;SDS011;9636;47.382;8.480;2023-02-07T13:29:43;2.78;;;2.40;;
19006;SDS011;9636;47.382;8.480;2023-02-07T13:32:13;2.83;;;2.30;;
19006;SDS011;9636;47.382;8.480;2023-02-07T13:34:41;3.28;;;2.75;;
19006;SDS011;9636;47.382;8.480;2023-02-07T13:37:11;2.53;;;2.33;;
19006;SDS011;9636;47.382;8.480;2023-02-07T13:39:41;2.83;;;2.50;;
19006;SDS011;9636;47.382;8.480;2023-02-07T13:42:14;2.45;;;2.22;;
19006;SDS011;9636;47.382;8.480;2023-02-07T13:44:46;4.28;;;2.70;;
19006;SDS011;9636;47.382;8.480;2023-02-07T13:47:24;3.92;;;2.78;;
19006;SDS011;9636;47.382;8.480;2023-02-07T13:49:56;6.43;;;2.42;;
19006;SDS011;9636;47.382;8.480;2023-02-07T13:52:28;3.65;;;2.50;;
19006;SDS011;9636;47.382;8.480;2023-02-07T13:54:58;2.80;;;2.60;;
19006;SDS011;9636;47.382;8.480;2023-02-07T13:57:38;4.82;;;2.47;;
19006;SDS011;9636;47.382;8.480;2023-02-07T14:00:25;3.38;;;2.42;;
19006;SDS011;9636;47.382;8.480;2023-02-07T14:02:53;4.10;;;2.58;;
19006;SDS011;9636;47.382;8.480;2023-02-07T14:05:24;2.75;;;2.10;;
19006;SDS011;9636;47.382;8.480;2023-02-07T14:07:56;3.53;;;2.53;;
19006;SDS011;9636;47.382;8.480;2023-02-07T14:13:21;2.65;;;2.45;;
19006;SDS011;9636;47.382;8.480;2023-02-07T14:15:53;2.63;;;2.28;;
19006;SDS011;9636;47.382;8.480;2023-02-07T14:18:31;2.55;;;2.35;;
19006;SDS011;9636;47.382;8.480;2023-02-07T14:21:01;2.78;;;2.13;;
19006;SDS011;9636;47.382;8.480;2023-02-07T14:28:52;3.22;;;2.40;;
19006;SDS011;9636;47.382;8.480;2023-02-07T14:31:41;3.03;;;1.85;;
19006;SDS011;9636;47.382;8.480;2023-02-07T14:34:14;2.10;;;1.90;;
19006;SDS011;9636;47.382;8.480;2023-02-07T14:36:41;2.50;;;2.30;;
19006;SDS011;9636;47.382;8.480;2023-02-07T14:42:01;6.28;;;2.20;;
19006;SDS011;9636;47.382;8.480;2023-02-07T14:44:36;2.40;;;2.03;;
19006;SDS011;9636;47.382;8.480;2023-02-07T14:47:06;3.40;;;2.00;;
19006;SDS011;9636;47.382;8.480;2023-02-07T14:49:34;3.17;;;2.00;;
19006;SDS011;9636;47.382;8.480;2023-02-07T14:52:03;2.90;;;2.22;;
19006;SDS011;9636;47.382;8.480;2023-02-07T14:54:32;3.08;;;2.22;;
19006;SDS011;9636;47.382;8.480;2023-02-07T14:57:03;5.13;;;2.13;;
19006;SDS011;9636;47.382;8.480;2023-02-07T14:59:32;2.28;;;2.08;;
19006;SDS011;9636;47.382;8.480;2023-02-07T15:04:48;3.35;;;2.03;;
19006;SDS011;9636;47.382;8.480;2023-02-07T15:07:15;2.03;;;1.67;;
19006;SDS011;9636;47.382;8.480;2023-02-07T15:09:43;2.47;;;1.85;;
19006;SDS011;9636;47.382;8.480;2023-02-07T15:12:12;3.72;;;1.90;;
19006;SDS011;9636;47.382;8.480;2023-02-07T15:14:42;4.18;;;2.05;;
19006;SDS011;9636;47.382;8.480;2023-02-07T15:17:10;1.85;;;1.75;;
19006;SDS011;9636;47.382;8.480;2023-02-07T15:19:38;2.08;;;1.98;;
19006;SDS011;9636;47.382;8.480;2023-02-07T15:22:07;1.90;;;1.80;;
19006;SDS011;9636;47.382;8.480;2023-02-07T15:24:35;2.17;;;1.98;;
19006;SDS011;9636;47.382;8.480;2023-02-07T15:27:03;2.70;;;1.55;;
19006;SDS011;9636;47.382;8.480;2023-02-07T15:29:31;2.75;;;1.90;;
19006;SDS011;9636;47.382;8.480;2023-02-07T15:31:59;2.45;;;2.00;;
19006;SDS011;9636;47.382;8.480;2023-02-07T15:34:29;3.08;;;2.28;;
19006;SDS011;9636;47.382;8.480;2023-02-07T15:36:57;2.40;;;1.83;;